createdAt,value
2022-09-01T00:00:14.274Z,79.10
2022-09-01T00:02:43.329Z,79.76
2022-09-01T00:05:10.557Z,80.07
2022-09-01T00:07:37.380Z,80.64
2022-09-01T00:10:09.335Z,81.11
2022-09-01T00:12:36.209Z,81.27
2022-09-01T00:15:07.272Z,81.22
2022-09-01T00:17:34.550Z,81.43
2022-09-01T00:20:01.428Z,81.49
2022-09-01T00:22:29.620Z,81.23
2022-09-01T00:24:56.868Z,81.31
2022-09-01T00:27:27.928Z,80.93
2022-09-01T00:29:58.559Z,81.06
2022-09-01T00:32:25.548Z,81.05
2022-09-01T00:34:52.461Z,81.08
2022-09-01T00:37:19.695Z,81.01
2022-09-01T00:39:46.608Z,80.88
2022-09-01T00:42:13.457Z,80.67
2022-09-01T00:44:40.283Z,80.95
2022-09-01T00:47:07.206Z,80.70
2022-09-01T00:49:40.213Z,81.00
2022-09-01T00:52:47.655Z,81.25
2022-09-01T00:55:35.475Z,80.79
2022-09-01T00:58:04.502Z,80.86
2022-09-01T01:00:41.906Z,80.76
2022-09-01T01:03:14.338Z,80.64
2022-09-01T01:05:48.973Z,80.51
2022-09-01T01:08:19.998Z,80.65
2022-09-01T01:10:47.600Z,80.37
2022-09-01T01:13:17.281Z,80.28
2022-09-01T01:15:44.981Z,80.29
2022-09-01T01:18:14.739Z,80.21
2022-09-01T01:21:02.246Z,80.23
2022-09-01T01:23:41.171Z,79.88
2022-09-01T01:26:10.641Z,79.96
2022-09-01T01:28:41.437Z,80.20
2022-09-01T01:31:14.546Z,79.79
2022-09-01T01:33:54.412Z,79.88
2022-09-01T01:36:33.923Z,79.51
2022-09-01T01:39:15.627Z,79.61
2022-09-01T01:41:48.895Z,79.54
2022-09-01T01:44:21.466Z,79.76
2022-09-01T01:46:52.452Z,79.49
2022-09-01T01:49:23.276Z,79.58
2022-09-01T01:51:58.082Z,79.68
2022-09-01T01:54:27.176Z,79.90
2022-09-01T01:56:55.959Z,80.11
2022-09-01T01:59:24.837Z,80.37
2022-09-01T02:01:51.936Z,80.43
2022-09-01T02:04:20.775Z,80.15
2022-09-01T02:06:50.023Z,80.03
2022-09-01T02:09:21.426Z,80.12
2022-09-01T02:11:49.393Z,80.01
2022-09-01T02:14:20.671Z,79.84
2022-09-01T02:16:48.490Z,80.17
2022-09-01T02:19:19.749Z,79.92
2022-09-01T02:21:56.338Z,79.88
2022-09-01T02:24:24.541Z,80.41
2022-09-01T02:26:51.406Z,80.56
2022-09-01T02:29:22.616Z,80.43
2022-09-01T02:31:52.686Z,80.91
2022-09-01T02:34:24.434Z,80.67
2022-09-01T02:36:54.507Z,80.45
2022-09-01T02:39:26.860Z,81.04
2022-09-01T02:41:54.802Z,81.23
2022-09-01T02:44:23.064Z,81.17
2022-09-01T02:46:50.932Z,81.27
2022-09-01T02:49:28.763Z,81.06
2022-09-01T02:52:02.054Z,81.33
2022-09-01T02:54:32.052Z,81.26
2022-09-01T02:56:59.176Z,81.64
2022-09-01T02:59:30.642Z,81.43
2022-09-01T03:01:57.744Z,81.29
2022-09-01T03:04:27.422Z,81.48
2022-09-01T03:06:55.141Z,81.80
2022-09-01T03:09:23.140Z,81.71
2022-09-01T03:11:53.284Z,81.80
2022-09-01T03:14:21.975Z,81.99
2022-09-01T03:16:48.984Z,82.16
2022-09-01T03:19:19.276Z,82.14
2022-09-01T03:21:47.136Z,82.51
2022-09-01T03:24:16.958Z,82.36
2022-09-01T03:26:45.190Z,82.56
2022-09-01T03:29:17.293Z,82.44
2022-09-01T03:31:45.330Z,82.20
2022-09-01T03:34:12.743Z,82.02
2022-09-01T03:36:40.113Z,82.20
2022-09-01T03:39:14.567Z,82.16
2022-09-01T03:41:43.891Z,82.30
2022-09-01T03:44:12.288Z,82.11
2022-09-01T03:46:40.827Z,82.21
2022-09-01T03:49:08.221Z,81.96
2022-09-01T03:51:35.493Z,81.97
2022-09-01T03:54:02.416Z,81.92
2022-09-01T03:56:29.935Z,81.93
2022-09-01T03:58:59.740Z,82.07
2022-09-01T04:01:29.169Z,82.16
2022-09-01T04:03:56.077Z,82.00
2022-09-01T04:06:24.541Z,82.03
2022-09-01T04:09:03.152Z,82.31
2022-09-01T04:11:31.182Z,82.26
2022-09-01T04:13:59.182Z,82.17
2022-09-01T04:16:48.858Z,82.34
2022-09-01T04:19:21.058Z,82.15
2022-09-01T04:21:51.864Z,82.42
2022-09-01T04:24:19.298Z,82.29
2022-09-01T04:26:49.826Z,82.33
2022-09-01T04:29:32.986Z,82.55
2022-09-01T04:32:05.750Z,82.79
2022-09-01T04:34:38.393Z,82.51
2022-09-01T04:37:15.194Z,82.55
2022-09-01T04:39:52.513Z,82.52
2022-09-01T04:42:24.220Z,82.70
2022-09-01T04:44:54.751Z,82.75
2022-09-01T04:47:35.613Z,82.71
2022-09-01T04:50:14.261Z,82.63
2022-09-01T04:52:45.191Z,83.01
2022-09-01T04:55:17.979Z,82.94
2022-09-01T04:57:49.883Z,83.29
2022-09-01T05:00:23.632Z,83.36
2022-09-01T05:03:01.386Z,83.28
2022-09-01T05:05:28.209Z,83.07
2022-09-01T05:07:55.913Z,83.36
2022-09-01T05:10:23.520Z,83.03
2022-09-01T05:12:51.025Z,83.03
2022-09-01T05:15:17.971Z,83.01
2022-09-01T05:17:44.991Z,83.08
2022-09-01T05:20:12.479Z,82.99
2022-09-01T05:22:41.212Z,82.95
2022-09-01T05:25:13.543Z,82.96
2022-09-01T05:27:49.961Z,82.61
2022-09-01T05:30:18.210Z,82.71
2022-09-01T05:32:49.318Z,82.66
2022-09-01T05:35:16.607Z,82.83
2022-09-01T05:37:43.669Z,82.90
2022-09-01T05:40:16.599Z,82.94
2022-09-01T05:42:47.740Z,83.16
2022-09-01T05:45:15.379Z,83.32
2022-09-01T05:47:42.306Z,83.26
2022-09-01T05:50:14.475Z,83.39
2022-09-01T05:52:48.022Z,83.27
2022-09-01T05:55:15.438Z,83.20
2022-09-01T05:57:43.049Z,83.21
2022-09-01T06:00:12.435Z,83.39
2022-09-01T06:02:40.837Z,83.60
2022-09-01T06:05:08.740Z,83.67
2022-09-01T06:07:38.236Z,83.38
2022-09-01T06:10:06.172Z,83.63
2022-09-01T06:12:33.942Z,83.42
2022-09-01T06:15:01.400Z,83.46
2022-09-01T06:17:30.217Z,83.39
2022-09-01T06:19:58.128Z,83.58
2022-09-01T06:22:28.433Z,83.26
2022-09-01T06:25:01.029Z,83.08
2022-09-01T06:27:29.568Z,83.05
2022-09-01T06:29:58.530Z,83.23
2022-09-01T06:32:27.369Z,82.85
2022-09-01T06:34:54.789Z,82.75
2022-09-01T06:37:23.236Z,82.42
2022-09-01T06:39:51.111Z,82.25
2022-09-01T06:42:19.600Z,81.50
2022-09-01T06:44:46.577Z,81.38
2022-09-01T06:47:15.732Z,81.03
2022-09-01T06:49:42.748Z,80.54
2022-09-01T06:52:09.661Z,80.30
2022-09-01T06:54:39.350Z,80.21
2022-09-01T06:59:54.429Z,78.71
2022-09-01T07:02:26.585Z,77.73
2022-09-01T07:04:54.725Z,77.71
2022-09-01T07:10:25.751Z,77.13
2022-09-01T07:13:12.162Z,76.37
2022-09-01T07:18:31.014Z,76.43
2022-09-01T07:21:35.682Z,76.42
2022-09-01T07:24:07.888Z,75.99
2022-09-01T07:26:46.845Z,76.06
2022-09-01T07:29:26.430Z,75.34
2022-09-01T07:34:46.473Z,75.02
2022-09-01T07:38:03.922Z,74.72
2022-09-01T07:45:31.208Z,74.78
2022-09-01T07:48:06.609Z,74.87
2022-09-01T07:51:35.212Z,74.86
2022-09-01T07:53:32.238Z,74.23
2022-09-01T07:56:07.585Z,74.40
2022-09-01T07:58:34.465Z,74.14
2022-09-01T08:01:04.053Z,74.25
2022-09-01T08:03:31.328Z,74.16
2022-09-01T08:06:06.616Z,73.42
2022-09-01T08:08:35.863Z,73.21
2022-09-01T08:11:04.604Z,73.24
2022-09-01T08:13:37.304Z,72.91
2022-09-01T08:16:18.006Z,71.69
2022-09-01T08:18:48.821Z,70.87
2022-09-01T08:21:18.063Z,70.37
2022-09-01T08:23:44.972Z,69.54
2022-09-01T08:26:16.283Z,66.92
2022-09-01T08:28:47.478Z,65.95
2022-09-01T08:31:23.256Z,64.12
2022-09-01T08:33:51.598Z,63.90
2022-09-01T08:36:23.650Z,62.56
2022-09-01T08:38:52.815Z,62.11
2022-09-01T08:41:47.173Z,60.51
2022-09-01T08:44:47.012Z,59.97
2022-09-01T08:47:28.112Z,58.26
2022-09-01T08:50:00.223Z,57.60
2022-09-01T08:52:32.116Z,56.73
2022-09-01T08:55:05.772Z,57.03
2022-09-01T08:57:40.011Z,56.68
2022-09-01T09:00:12.815Z,56.82
2022-09-01T09:03:02.713Z,56.71
2022-09-01T09:05:53.771Z,55.45
2022-09-01T09:09:00.903Z,55.21
2022-09-01T09:11:46.726Z,56.03
2022-09-01T09:14:51.383Z,55.77
2022-09-01T09:17:23.876Z,56.21
2022-09-01T09:19:51.046Z,56.18
2022-09-01T09:22:21.192Z,55.14
2022-09-01T09:24:56.289Z,53.91
2022-09-01T09:27:34.781Z,54.42
2022-09-01T09:30:11.632Z,54.58
2022-09-01T09:33:54.317Z,53.77
2022-09-01T09:36:37.731Z,52.77
2022-09-01T09:39:10.449Z,53.33
2022-09-01T09:41:40.563Z,52.70
2022-09-01T09:44:29.754Z,52.33
2022-09-01T09:46:57.945Z,51.60
2022-09-01T09:49:34.524Z,51.38
2022-09-01T09:52:10.013Z,51.60
2022-09-01T09:54:42.155Z,51.23
2022-09-01T09:57:08.931Z,51.18
2022-09-01T10:00:10.347Z,52.13
2022-09-01T10:02:45.253Z,52.71
2022-09-01T10:05:44.373Z,52.95
2022-09-01T10:08:45.812Z,52.51
2022-09-01T10:11:33.551Z,52.26
2022-09-01T10:14:52.478Z,51.19
2022-09-01T10:17:19.017Z,49.41
2022-09-01T10:20:11.420Z,47.75
2022-09-01T10:22:39.979Z,47.94
2022-09-01T10:25:10.378Z,48.13
2022-09-01T10:27:42.590Z,48.05
2022-09-01T10:30:18.996Z,48.58
2022-09-01T10:32:56.023Z,48.66
2022-09-01T10:35:33.060Z,48.48
2022-09-01T10:38:08.250Z,48.89
2022-09-01T10:41:09.101Z,47.99
2022-09-01T10:43:43.317Z,48.10
2022-09-01T10:46:40.760Z,48.66
2022-09-01T10:49:47.342Z,48.27
2022-09-01T10:52:43.988Z,48.23
2022-09-01T10:55:24.462Z,47.60
2022-09-01T10:57:55.830Z,47.65
2022-09-01T11:00:36.890Z,46.76
2022-09-01T11:06:14.889Z,47.89
2022-09-01T11:09:01.500Z,46.81
2022-09-01T11:12:38.287Z,45.78
2022-09-01T11:15:42.918Z,46.03
2022-09-01T11:18:25.083Z,45.79
2022-09-01T11:20:56.305Z,46.21
2022-09-01T11:23:30.643Z,46.38
2022-09-01T11:26:19.248Z,45.92
2022-09-01T11:28:47.168Z,45.89
2022-09-01T11:31:51.199Z,46.40
2022-09-01T11:34:23.803Z,46.09
2022-09-01T11:37:16.081Z,45.89
2022-09-01T11:39:52.072Z,45.95
2022-09-01T11:42:40.243Z,45.95
2022-09-01T11:45:31.484Z,45.85
2022-09-01T11:48:19.203Z,45.29
2022-09-01T11:51:02.832Z,43.41
2022-09-01T11:53:30.547Z,44.03
2022-09-01T11:56:20.507Z,43.87
2022-09-01T11:58:47.651Z,43.59
2022-09-01T12:01:32.127Z,43.42
2022-09-01T12:04:18.723Z,43.60
2022-09-01T12:07:02.501Z,42.99
2022-09-01T12:09:44.199Z,42.81
2022-09-01T12:12:34.040Z,43.08
2022-09-01T12:15:11.400Z,43.24
2022-09-01T12:17:40.903Z,44.01
2022-09-01T12:20:29.615Z,43.50
2022-09-01T12:22:59.423Z,42.59
2022-09-01T12:25:34.679Z,42.18
2022-09-01T12:28:03.947Z,42.61
2022-09-01T12:30:35.531Z,42.69
2022-09-01T12:33:23.948Z,42.84
2022-09-01T12:35:53.981Z,42.82
2022-09-01T12:38:25.039Z,42.46
2022-09-01T12:40:57.748Z,42.29
2022-09-01T12:43:39.735Z,42.33
2022-09-01T12:46:10.470Z,42.38
2022-09-01T12:48:41.319Z,42.19
2022-09-01T12:51:30.922Z,42.60
2022-09-01T12:54:04.859Z,41.51
2022-09-01T12:56:39.139Z,41.17
2022-09-01T12:59:17.833Z,41.28
2022-09-01T13:01:47.251Z,41.69
2022-09-01T13:04:31.145Z,40.51
2022-09-01T13:07:05.143Z,39.82
2022-09-01T13:09:32.556Z,40.96
2022-09-01T13:12:18.469Z,40.89
2022-09-01T13:14:45.907Z,41.40
2022-09-01T13:17:14.221Z,41.84
2022-09-01T13:19:41.873Z,41.65
2022-09-01T13:22:08.736Z,41.23
2022-09-01T13:24:35.587Z,40.24
2022-09-01T13:29:50.816Z,40.47
2022-09-01T13:32:21.262Z,40.80
2022-09-01T13:34:51.842Z,41.19
2022-09-01T13:37:20.599Z,41.41
2022-09-01T13:39:48.236Z,41.61
2022-09-01T13:42:16.472Z,41.79
2022-09-01T13:44:44.441Z,41.69
2022-09-01T13:50:10.521Z,40.92
2022-09-01T13:52:43.165Z,40.72
2022-09-01T13:55:26.772Z,40.97
2022-09-01T13:57:55.809Z,41.09
2022-09-01T14:00:32.230Z,41.34
2022-09-01T14:03:05.722Z,41.54
2022-09-01T14:05:37.131Z,41.71
2022-09-01T14:08:07.246Z,41.63
2022-09-01T14:10:41.829Z,41.36
2022-09-01T14:13:10.999Z,40.89
2022-09-01T14:15:38.196Z,41.04
2022-09-01T14:18:05.703Z,40.58
2022-09-01T14:20:38.555Z,40.18
2022-09-01T14:23:08.531Z,40.67
2022-09-01T14:25:36.058Z,40.87
2022-09-01T14:28:04.008Z,40.88
2022-09-01T14:30:34.578Z,40.70
2022-09-01T14:33:01.992Z,40.98
2022-09-01T14:35:33.841Z,40.90
2022-09-01T14:38:02.971Z,41.47
2022-09-01T14:40:29.873Z,41.37
2022-09-01T14:42:56.789Z,41.63
2022-09-01T14:45:27.739Z,41.66
2022-09-01T14:47:58.807Z,41.56
2022-09-01T14:50:27.329Z,41.27
2022-09-01T14:52:56.964Z,41.27
2022-09-01T14:55:26.720Z,41.11
2022-09-01T14:57:54.642Z,41.16
2022-09-01T15:00:25.173Z,41.08
2022-09-01T15:02:53.650Z,41.11
2022-09-01T15:05:21.547Z,40.60
2022-09-01T15:07:49.274Z,40.32
2022-09-01T15:10:24.449Z,40.43
2022-09-01T15:12:53.790Z,39.85
2022-09-01T15:15:20.822Z,40.03
2022-09-01T15:17:47.591Z,39.92
2022-09-01T15:20:47.751Z,40.18
2022-09-01T15:23:19.704Z,39.82
2022-09-01T15:25:48.351Z,39.68
2022-09-01T15:28:15.657Z,39.85
2022-09-01T15:30:44.810Z,39.82
2022-09-01T15:33:15.679Z,39.68
2022-09-01T15:35:44.952Z,39.72
2022-09-01T15:38:17.928Z,40.10
2022-09-01T15:40:55.399Z,40.00
2022-09-01T15:43:25.955Z,39.86
2022-09-01T15:45:52.940Z,39.38
2022-09-01T15:48:19.749Z,39.37
2022-09-01T15:50:46.799Z,39.53
2022-09-01T15:53:13.717Z,39.70
2022-09-01T15:55:44.983Z,39.85
2022-09-01T15:58:15.301Z,39.72
2022-09-01T16:00:45.257Z,39.76
2022-09-01T16:03:12.746Z,39.83
2022-09-01T16:05:41.271Z,39.99
2022-09-01T16:08:11.658Z,40.15
2022-09-01T16:10:42.320Z,40.47
2022-09-01T16:13:11.136Z,40.55
2022-09-01T16:15:50.022Z,40.82
2022-09-01T16:18:41.957Z,40.41
2022-09-01T16:21:22.544Z,40.46
2022-09-01T16:23:52.454Z,40.47
2022-09-01T16:26:23.340Z,41.03
2022-09-01T16:28:57.920Z,41.33
2022-09-01T16:31:29.343Z,41.38
2022-09-01T16:34:02.280Z,41.74
2022-09-01T16:37:25.236Z,42.12
2022-09-01T16:40:25.037Z,42.18
2022-09-01T16:43:23.877Z,41.92
2022-09-01T16:46:13.758Z,42.10
2022-09-01T16:48:53.299Z,42.40
2022-09-01T16:51:42.093Z,42.67
2022-09-01T16:54:27.222Z,42.79
2022-09-01T16:57:11.452Z,42.69
2022-09-01T16:59:59.211Z,42.16
2022-09-01T17:02:53.707Z,42.21
2022-09-01T17:06:13.814Z,42.45
2022-09-01T17:08:58.208Z,42.63
2022-09-01T17:11:49.216Z,42.60
2022-09-01T17:14:28.001Z,42.39
2022-09-01T17:17:08.362Z,42.58
2022-09-01T17:19:38.603Z,42.49
2022-09-01T17:22:11.515Z,42.34
2022-09-01T17:24:42.400Z,42.07
2022-09-01T17:27:20.612Z,42.10
2022-09-01T17:29:53.793Z,42.17
2022-09-01T17:32:56.284Z,42.53
2022-09-01T17:36:06.614Z,42.09
2022-09-01T17:39:04.338Z,41.92
2022-09-01T17:41:40.398Z,42.06
2022-09-01T17:44:45.582Z,42.32
2022-09-01T17:48:03.640Z,42.64
2022-09-01T17:50:39.460Z,43.20
2022-09-01T17:53:36.480Z,43.22
2022-09-01T17:56:38.367Z,43.38
2022-09-01T17:59:43.199Z,43.59
2022-09-01T18:02:18.865Z,43.68
2022-09-01T18:05:15.808Z,43.76
2022-09-01T18:08:19.331Z,43.99
2022-09-01T18:10:57.248Z,44.07
2022-09-01T18:13:53.526Z,44.17
2022-09-01T18:16:49.882Z,44.16
2022-09-01T18:19:23.043Z,44.22
2022-09-01T18:21:58.576Z,44.52
2022-09-01T18:24:42.471Z,44.57
2022-09-01T18:27:09.379Z,44.57
2022-09-01T18:29:36.338Z,44.95
2022-09-01T18:32:21.373Z,44.97
2022-09-01T18:35:24.479Z,45.16
2022-09-01T18:38:09.881Z,45.53
2022-09-01T18:41:38.232Z,45.62
2022-09-01T18:44:17.671Z,45.73
2022-09-01T18:46:57.985Z,45.76
2022-09-01T18:49:36.928Z,46.07
2022-09-01T18:52:14.474Z,46.22
2022-09-01T18:54:58.319Z,46.39
2022-09-01T18:57:36.234Z,46.52
2022-09-01T19:00:20.323Z,46.50
2022-09-01T19:03:04.815Z,46.54
2022-09-01T19:05:38.389Z,46.58
2022-09-01T19:08:18.072Z,46.05
2022-09-01T19:11:21.977Z,46.00
2022-09-01T19:14:07.336Z,46.05
2022-09-01T19:17:04.555Z,46.11
2022-09-01T19:19:46.468Z,46.33
2022-09-01T19:22:20.475Z,46.31
2022-09-01T19:24:54.018Z,46.36
2022-09-01T19:27:28.654Z,46.58
2022-09-01T19:30:04.208Z,46.43
2022-09-01T19:32:35.144Z,46.35
2022-09-01T19:35:14.078Z,46.20
2022-09-01T19:37:44.109Z,46.59
2022-09-01T19:40:11.756Z,46.39
2022-09-01T19:42:47.106Z,46.43
2022-09-01T19:45:35.927Z,46.83
2022-09-01T19:48:21.910Z,46.88
2022-09-01T19:51:17.876Z,46.90
2022-09-01T19:53:49.283Z,46.87
2022-09-01T19:56:35.707Z,47.11
2022-09-01T19:59:27.555Z,47.32
2022-09-01T20:02:10.378Z,47.44
2022-09-01T20:04:56.950Z,47.54
2022-09-01T20:07:38.402Z,47.54
2022-09-01T20:10:55.350Z,47.74
2022-09-01T20:14:17.668Z,47.79
2022-09-01T20:16:51.387Z,48.35
2022-09-01T20:19:45.093Z,48.31
2022-09-01T20:22:23.292Z,48.31
2022-09-01T20:24:50.264Z,48.51
2022-09-01T20:27:43.858Z,48.29
2022-09-01T20:30:14.690Z,48.57
2022-09-01T20:33:02.947Z,48.67
2022-09-01T20:35:39.822Z,48.98
2022-09-01T20:39:00.599Z,49.24
2022-09-01T20:42:05.606Z,49.57
2022-09-01T20:44:44.731Z,49.89
2022-09-01T20:47:12.648Z,50.26
2022-09-01T20:49:40.519Z,50.41
2022-09-01T20:53:00.000Z,50.76
2022-09-01T20:55:40.693Z,51.03
2022-09-01T20:58:32.838Z,51.33
2022-09-01T21:01:31.841Z,51.50
2022-09-01T21:04:13.361Z,51.63
2022-09-01T21:07:08.469Z,51.96
2022-09-01T21:10:02.210Z,52.17
2022-09-01T21:12:37.610Z,52.47
2022-09-01T21:15:52.760Z,53.65
2022-09-01T21:18:30.406Z,53.46
2022-09-01T21:21:10.205Z,54.07
2022-09-01T21:23:37.172Z,54.45
2022-09-01T21:26:04.252Z,55.15
2022-09-01T21:28:31.541Z,55.35
2022-09-01T21:31:00.214Z,55.74
2022-09-01T21:33:31.923Z,56.44
2022-09-01T21:36:00.398Z,56.71
2022-09-01T21:38:29.572Z,57.12
2022-09-01T21:40:59.700Z,57.49
2022-09-01T21:43:33.034Z,58.23
2022-09-01T21:46:01.285Z,58.37
2022-09-01T21:48:29.064Z,58.69
2022-09-01T21:50:55.914Z,58.86
2022-09-01T21:53:22.782Z,59.12
2022-09-01T21:55:49.907Z,59.43
2022-09-01T21:58:16.820Z,60.37
2022-09-01T22:00:44.661Z,60.57
2022-09-01T22:03:12.957Z,60.60
2022-09-01T22:05:42.503Z,61.15
2022-09-01T22:08:12.405Z,61.42
2022-09-01T22:10:49.863Z,63.25
2022-09-01T22:13:17.552Z,63.86
2022-09-01T22:15:49.358Z,64.47
2022-09-01T22:18:18.628Z,65.33
2022-09-01T22:20:46.692Z,65.70
2022-09-01T22:23:15.186Z,66.66
2022-09-01T22:25:45.922Z,66.67
2022-09-01T22:28:13.951Z,67.29
2022-09-01T22:30:47.018Z,67.57
2022-09-01T22:33:14.631Z,67.51
2022-09-01T22:35:49.009Z,67.48
2022-09-01T22:38:17.390Z,67.86
2022-09-01T22:40:57.402Z,68.49
2022-09-01T22:43:25.667Z,68.74
2022-09-01T22:45:54.383Z,68.84
2022-09-01T22:48:25.712Z,68.89
2022-09-01T22:50:53.243Z,69.64
2022-09-01T22:53:22.976Z,70.33
2022-09-01T22:55:51.653Z,70.07
2022-09-01T22:58:20.127Z,69.68
2022-09-01T23:00:54.151Z,70.00
2022-09-01T23:03:22.587Z,69.98
2022-09-01T23:05:50.491Z,70.23
2022-09-01T23:08:17.574Z,70.24
2022-09-01T23:10:44.483Z,70.32
2022-09-01T23:13:11.322Z,70.62
2022-09-01T23:15:38.235Z,70.60
2022-09-01T23:18:05.756Z,70.76
2022-09-01T23:20:32.643Z,70.45
2022-09-01T23:22:59.476Z,70.72
2022-09-01T23:25:26.527Z,70.61
2022-09-01T23:27:53.444Z,70.92
2022-09-01T23:30:20.471Z,70.98
2022-09-01T23:32:47.263Z,71.05
2022-09-01T23:35:14.198Z,71.45
2022-09-01T23:37:43.481Z,71.90
2022-09-01T23:40:10.630Z,72.09
2022-09-01T23:42:37.627Z,72.79
2022-09-01T23:45:06.126Z,72.88
2022-09-01T23:47:32.979Z,73.12
2022-09-01T23:50:00.014Z,73.50
2022-09-01T23:52:26.893Z,73.50
2022-09-01T23:54:54.855Z,73.78
2022-09-01T23:57:21.789Z,74.11
2022-09-01T23:59:48.715Z,73.93
